Time;durP1;ratioP1;P1;durP2;ratioP2;P2;SDS_P1;SDS_P2;PMS_P1;PMS_P2;Temp;Humidity;BMP_temperature;BMP_pressure;BME280_temperature;BME280_humidity;BME280_pressure;Samples;Min_cycle;Max_cycle;Signal;HPM_P1;HPM_P2
2022/03/23 00:00:08;;;;;;;;;;;20.70;24.10;;;;;;466757;254;1067;-75
2022/03/23 00:02:09;;;;;;;;;;;20.70;24.10;;;;;;466826;254;1300;-75
2022/03/23 00:04:11;;;;;;;;;;;20.70;24.10;;;;;;466803;254;1046;-75
2022/03/23 00:06:12;;;;;;;;;;;20.70;24.10;;;;;;466704;254;1068;-75
2022/03/23 00:08:14;;;;;;;;;;;20.70;24.10;;;;;;466649;254;1195;-75
2022/03/23 00:10:15;;;;;;;;;;;20.60;24.10;;;;;;466797;254;1025;-75
2022/03/23 00:12:16;;;;;;;;;;;20.60;24.20;;;;;;466702;254;997;-75
2022/03/23 00:14:18;;;;;;;;;;;20.50;24.20;;;;;;466717;254;1088;-75
2022/03/23 00:16:19;;;;;;;;;;;20.50;24.20;;;;;;466695;254;2193;-75
2022/03/23 00:18:20;;;;;;;;;;;20.60;24.20;;;;;;466830;254;1071;-75
2022/03/23 00:20:22;;;;;;;;;;;20.60;24.20;;;;;;466758;254;1256;-75
2022/03/23 00:22:27;;;;;;;;;;;20.70;24.10;;;;;;466770;254;1175;-74
2022/03/23 00:24:25;;;;;;;;;;;20.70;24.10;;;;;;466827;254;1304;-74
2022/03/23 00:26:26;;;;;;;;;;;20.60;24.10;;;;;;466676;254;1022;-75
2022/03/23 00:28:27;;;;;;;;;;;20.60;24.20;;;;;;466702;254;1058;-75
2022/03/23 00:30:28;;;;;;;;;;;20.70;24.10;;;;;;466702;254;1295;-75
2022/03/23 00:32:30;;;;;;;;;;;20.60;24.10;;;;;;466741;254;991;-75
2022/03/23 00:34:31;;;;;;;;;;;20.70;24.10;;;;;;466717;254;1094;-75
2022/03/23 00:36:33;;;;;;;;;;;20.60;24.10;;;;;;466649;254;2135;-75
2022/03/23 00:38:34;;;;;;;;;;;20.70;24.10;;;;;;466702;254;1363;-75
2022/03/23 00:40:35;;;;;;;;;;;20.50;24.10;;;;;;466787;254;1403;-75
2022/03/23 00:42:36;;;;;;;;;;;20.60;24.10;;;;;;466696;254;1046;-75
2022/03/23 00:44:38;;;;;;;;;;;20.50;24.10;;;;;;466717;254;1117;-75
2022/03/23 00:46:39;;;;;;;;;;;20.70;24.10;;;;;;466721;254;1211;-75
2022/03/23 00:48:41;;;;;;;;;;;20.60;24.00;;;;;;466730;254;1111;-75
2022/03/23 00:50:42;;;;;;;;;;;20.50;24.10;;;;;;466723;254;1064;-75
2022/03/23 00:52:47;;;;;;;;;;;20.40;24.20;;;;;;466707;254;1308;-75
2022/03/23 00:54:45;;;;;;;;;;;20.30;24.30;;;;;;466788;254;1758;-75
2022/03/23 00:56:48;;;;;;;;;;;20.40;24.30;;;;;;466684;254;2134;-75
2022/03/23 00:58:48;;;;;;;;;;;20.40;24.30;;;;;;466722;254;1466;-75
2022/03/23 01:00:49;;;;;;;;;;;20.50;24.20;;;;;;466725;254;1039;-75
2022/03/23 01:02:50;;;;;;;;;;;20.50;24.10;;;;;;466674;254;1099;-75
2022/03/23 01:04:52;;;;;;;;;;;20.50;24.10;;;;;;466717;254;1083;-75
2022/03/23 01:06:53;;;;;;;;;;;20.50;24.10;;;;;;466728;254;1094;-75
2022/03/23 01:08:54;;;;;;;;;;;20.50;24.20;;;;;;466750;254;1183;-75
2022/03/23 01:10:56;;;;;;;;;;;20.50;24.10;;;;;;466702;254;1238;-75
2022/03/23 01:12:57;;;;;;;;;;;20.60;24.10;;;;;;466709;254;1060;-75
2022/03/23 01:14:58;;;;;;;;;;;20.50;24.00;;;;;;466742;254;1070;-75
2022/03/23 01:17:00;;;;;;;;;;;20.50;24.10;;;;;;466686;254;2201;-75
2022/03/23 01:19:01;;;;;;;;;;;20.50;24.20;;;;;;466694;254;1125;-75
2022/03/23 01:21:02;;;;;;;;;;;20.50;24.20;;;;;;466681;254;1114;-75
2022/03/23 01:23:04;;;;;;;;;;;20.80;24.00;;;;;;466715;254;1213;-75
2022/03/23 01:25:07;;;;;;;;;;;20.80;23.90;;;;;;466747;254;1070;-75
2022/03/23 01:27:07;;;;;;;;;;;21.00;23.80;;;;;;466808;254;1311;-75
2022/03/23 01:29:08;;;;;;;;;;;21.20;23.70;;;;;;466745;254;1074;-75
2022/03/23 01:31:10;;;;;;;;;;;21.30;23.50;;;;;;466684;254;1016;-75
2022/03/23 01:33:11;;;;;;;;;;;21.60;23.50;;;;;;466748;254;971;-75
2022/03/23 01:35:12;;;;;;;;;;;21.70;23.40;;;;;;466751;254;1035;-74
2022/03/23 01:37:14;;;;;;;;;;;21.70;23.30;;;;;;466701;254;2134;-74
2022/03/23 01:39:15;;;;;;;;;;;21.70;23.30;;;;;;466688;254;1173;-74
2022/03/23 01:41:17;;;;;;;;;;;21.90;23.30;;;;;;466770;254;1056;-74
2022/03/23 01:43:18;;;;;;;;;;;21.80;23.30;;;;;;466890;254;1052;-75
2022/03/23 01:45:19;;;;;;;;;;;21.80;23.30;;;;;;466761;254;1193;-75
2022/03/23 01:47:20;;;;;;;;;;;21.70;23.40;;;;;;466689;254;1063;-75
2022/03/23 01:49:22;;;;;;;;;;;21.50;23.40;;;;;;466745;254;1080;-75
2022/03/23 01:51:23;;;;;;;;;;;21.40;23.50;;;;;;466707;254;1080;-75
2022/03/23 01:53:24;;;;;;;;;;;21.30;23.60;;;;;;466920;254;1142;-75
2022/03/23 01:55:26;;;;;;;;;;;21.10;23.70;;;;;;466757;254;953;-75
2022/03/23 01:57:27;;;;;;;;;;;21.00;23.80;;;;;;466755;254;2213;-75
2022/03/23 01:59:28;;;;;;;;;;;21.10;23.80;;;;;;466884;254;1050;-75
2022/03/23 02:01:30;;;;;;;;;;;20.90;23.80;;;;;;466655;254;1051;-75
2022/03/23 02:03:31;;;;;;;;;;;20.90;23.90;;;;;;466714;254;963;-75
2022/03/23 02:05:33;;;;;;;;;;;20.70;24.00;;;;;;466737;254;1008;-75
2022/03/23 02:07:34;;;;;;;;;;;20.70;24.00;;;;;;466694;254;1051;-75
2022/03/23 02:09:35;;;;;;;;;;;20.70;24.10;;;;;;466700;254;1352;-75
2022/03/23 02:11:37;;;;;;;;;;;20.70;24.10;;;;;;466758;254;1055;-75
2022/03/23 02:13:38;;;;;;;;;;;20.70;24.10;;;;;;467041;254;1080;-75
2022/03/23 02:15:39;;;;;;;;;;;20.60;24.10;;;;;;467061;254;995;-75
2022/03/23 02:17:42;;;;;;;;;;;20.70;24.00;;;;;;466728;254;2181;-75
2022/03/23 02:19:42;;;;;;;;;;;20.60;24.10;;;;;;466831;254;1408;-75
2022/03/23 02:21:44;;;;;;;;;;;20.70;24.10;;;;;;466725;254;1079;-75
2022/03/23 02:23:45;;;;;;;;;;;20.80;24.00;;;;;;466748;254;1177;-75
2022/03/23 02:25:46;;;;;;;;;;;20.70;24.00;;;;;;466710;254;957;-75
2022/03/23 02:27:47;;;;;;;;;;;20.80;23.90;;;;;;466725;254;1085;-75
2022/03/23 02:29:49;;;;;;;;;;;20.80;24.00;;;;;;466760;254;1001;-75
2022/03/23 02:31:50;;;;;;;;;;;20.80;23.90;;;;;;466683;254;1041;-75
2022/03/23 02:33:51;;;;;;;;;;;20.80;24.10;;;;;;466676;254;987;-75
2022/03/23 02:35:53;;;;;;;;;;;20.80;24.00;;;;;;466694;254;1053;-75
2022/03/23 02:37:54;;;;;;;;;;;20.80;23.90;;;;;;466719;254;2130;-75
2022/03/23 02:39:55;;;;;;;;;;;20.80;24.10;;;;;;466696;254;1237;-75
2022/03/23 02:41:57;;;;;;;;;;;20.90;24.00;;;;;;466825;254;1024;-75
2022/03/23 02:43:59;;;;;;;;;;;20.90;24.00;;;;;;466730;254;1078;-75
2022/03/23 02:45:59;;;;;;;;;;;20.80;24.00;;;;;;466720;254;1407;-75
2022/03/23 02:48:01;;;;;;;;;;;20.80;24.00;;;;;;466752;254;1081;-75
2022/03/23 02:50:02;;;;;;;;;;;20.80;24.10;;;;;;466745;254;1075;-75
2022/03/23 02:52:03;;;;;;;;;;;20.70;24.20;;;;;;466766;254;1087;-75
2022/03/23 03:03:22;;;;;;;;;;;20.80;24.20;;;;;;466688;256;1175;-75
2022/03/23 03:05:23;;;;;;;;;;;20.70;24.20;;;;;;466676;254;995;-75
2022/03/23 03:07:24;;;;;;;;;;;20.70;24.30;;;;;;466680;254;977;-75
2022/03/23 03:09:26;;;;;;;;;;;20.60;24.30;;;;;;466728;254;1208;-75
2022/03/23 03:11:27;;;;;;;;;;;20.60;24.30;;;;;;466658;254;1007;-75
2022/03/23 03:13:29;;;;;;;;;;;20.50;24.40;;;;;;466668;254;976;-75
2022/03/23 03:15:30;;;;;;;;;;;20.50;24.40;;;;;;466724;254;946;-74
2022/03/23 03:17:31;;;;;;;;;;;20.50;24.50;;;;;;466696;254;2200;-74
2022/03/23 03:19:33;;;;;;;;;;;20.40;24.50;;;;;;466764;254;950;-75
2022/03/23 03:21:34;;;;;;;;;;;20.30;24.60;;;;;;466731;254;1015;-75
2022/03/23 03:23:35;;;;;;;;;;;20.40;24.60;;;;;;466758;254;1037;-75
2022/03/23 03:25:36;;;;;;;;;;;20.50;24.60;;;;;;466715;254;1204;-75
2022/03/23 03:27:38;;;;;;;;;;;20.40;24.50;;;;;;466690;254;1109;-75
2022/03/23 03:29:39;;;;;;;;;;;20.50;24.50;;;;;;466683;254;994;-75
2022/03/23 03:31:41;;;;;;;;;;;20.60;24.50;;;;;;466673;254;1168;-75
2022/03/23 03:33:42;;;;;;;;;;;20.70;24.50;;;;;;466713;254;1021;-75
2022/03/23 03:35:43;;;;;;;;;;;20.60;24.40;;;;;;466766;254;981;-75
2022/03/23 03:37:45;;;;;;;;;;;20.60;24.40;;;;;;466732;254;2193;-75
2022/03/23 03:39:46;;;;;;;;;;;20.70;24.40;;;;;;466733;254;1174;-75
2022/03/23 03:41:47;;;;;;;;;;;20.80;24.40;;;;;;466650;254;973;-75
2022/03/23 03:43:49;;;;;;;;;;;20.70;24.50;;;;;;466764;254;1230;-75
2022/03/23 03:45:50;;;;;;;;;;;20.60;24.50;;;;;;466723;254;1101;-75
2022/03/23 03:47:52;;;;;;;;;;;20.60;24.50;;;;;;466801;254;1068;-75
2022/03/23 03:49:53;;;;;;;;;;;20.70;24.50;;;;;;466722;254;991;-74
2022/03/23 03:51:54;;;;;;;;;;;20.70;24.50;;;;;;466715;254;976;-73
2022/03/23 03:53:56;;;;;;;;;;;20.80;24.40;;;;;;466755;254;1683;-72
2022/03/23 03:55:57;;;;;;;;;;;20.80;24.30;;;;;;466779;254;1269;-72
2022/03/23 03:57:58;;;;;;;;;;;20.80;24.40;;;;;;466817;254;2197;-72
2022/03/23 04:00:00;;;;;;;;;;;20.90;24.40;;;;;;466767;254;945;-72
2022/03/23 04:02:01;;;;;;;;;;;20.70;24.50;;;;;;466728;254;1051;-72
2022/03/23 04:04:02;;;;;;;;;;;20.70;24.60;;;;;;466736;254;960;-72
2022/03/23 04:06:04;;;;;;;;;;;20.60;24.60;;;;;;466774;254;1064;-73
2022/03/23 04:08:05;;;;;;;;;;;20.60;24.70;;;;;;466818;254;1460;-72
2022/03/23 04:10:07;;;;;;;;;;;20.60;24.70;;;;;;466710;254;1239;-72
2022/03/23 04:12:09;;;;;;;;;;;20.60;24.60;;;;;;466866;254;1057;-72
2022/03/23 04:14:10;;;;;;;;;;;20.70;24.60;;;;;;466755;254;1283;-72
2022/03/23 04:16:11;;;;;;;;;;;20.80;24.50;;;;;;466693;254;1057;-72
2022/03/23 04:18:12;;;;;;;;;;;20.70;24.60;;;;;;466762;254;2146;-72
2022/03/23 04:20:13;;;;;;;;;;;20.70;24.60;;;;;;466749;254;1067;-72
2022/03/23 04:22:15;;;;;;;;;;;20.80;24.60;;;;;;466712;254;991;-72
2022/03/23 04:24:16;;;;;;;;;;;20.90;24.50;;;;;;466719;254;1178;-72
2022/03/23 04:26:17;;;;;;;;;;;20.80;24.50;;;;;;466719;254;1060;-72
2022/03/23 04:28:20;;;;;;;;;;;20.60;24.60;;;;;;466698;254;1077;-72
2022/03/23 04:30:20;;;;;;;;;;;20.80;24.60;;;;;;466771;254;1341;-72
2022/03/23 04:32:21;;;;;;;;;;;20.90;24.50;;;;;;466704;254;1040;-72
2022/03/23 04:34:23;;;;;;;;;;;21.10;24.40;;;;;;466723;254;972;-72
2022/03/23 04:36:24;;;;;;;;;;;21.10;24.40;;;;;;466686;254;1030;-72
2022/03/23 04:38:26;;;;;;;;;;;21.30;24.30;;;;;;466734;254;2197;-72
2022/03/23 04:40:27;;;;;;;;;;;21.40;24.20;;;;;;466760;254;1284;-72
2022/03/23 04:42:28;;;;;;;;;;;21.50;24.20;;;;;;466725;254;1054;-72
2022/03/23 04:44:29;;;;;;;;;;;21.60;24.10;;;;;;466800;254;953;-73
2022/03/23 04:46:31;;;;;;;;;;;21.60;24.10;;;;;;466632;254;1315;-73
2022/03/23 04:48:33;;;;;;;;;;;21.70;24.00;;;;;;466652;254;1168;-73
2022/03/23 04:50:34;;;;;;;;;;;21.80;23.90;;;;;;466707;254;1205;-73
2022/03/23 04:52:35;;;;;;;;;;;21.90;24.00;;;;;;466711;254;983;-73
2022/03/23 04:54:36;;;;;;;;;;;21.80;23.90;;;;;;466915;254;1193;-72
2022/03/23 04:56:37;;;;;;;;;;;21.80;23.90;;;;;;466697;254;1176;-72
2022/03/23 04:58:41;;;;;;;;;;;21.50;24.10;;;;;;466642;254;2138;-72
2022/03/23 05:00:40;;;;;;;;;;;21.60;24.10;;;;;;466661;254;1417;-74
2022/03/23 05:02:41;;;;;;;;;;;21.50;24.30;;;;;;466632;254;1257;-74
2022/03/23 05:04:43;;;;;;;;;;;21.40;24.10;;;;;;466629;254;1212;-75
2022/03/23 05:06:45;;;;;;;;;;;21.20;24.40;;;;;;466580;254;1015;-75
2022/03/23 05:08:46;;;;;;;;;;;21.20;24.40;;;;;;466675;254;994;-75
2022/03/23 05:10:48;;;;;;;;;;;21.00;24.50;;;;;;466718;254;1213;-76
2022/03/23 05:12:49;;;;;;;;;;;21.00;24.50;;;;;;466707;254;1375;-75
2022/03/23 05:14:50;;;;;;;;;;;20.90;24.60;;;;;;466712;254;977;-75
2022/03/23 05:16:52;;;;;;;;;;;21.10;24.40;;;;;;466601;254;1148;-75
2022/03/23 05:18:53;;;;;;;;;;;20.90;24.50;;;;;;466639;254;2193;-75
2022/03/23 05:20:54;;;;;;;;;;;21.10;24.40;;;;;;466635;254;960;-75
2022/03/23 05:22:56;;;;;;;;;;;21.20;24.50;;;;;;466639;254;1084;-75
2022/03/23 05:24:57;;;;;;;;;;;21.10;24.40;;;;;;466635;254;1094;-75
2022/03/23 05:26:58;;;;;;;;;;;21.10;24.50;;;;;;466612;254;1059;-75
2022/03/23 05:29:00;;;;;;;;;;;21.20;24.40;;;;;;466636;254;1050;-75
2022/03/23 05:31:01;;;;;;;;;;;21.20;24.40;;;;;;466595;254;1161;-75
2022/03/23 05:33:03;;;;;;;;;;;21.10;24.40;;;;;;466536;254;995;-75
2022/03/23 05:35:04;;;;;;;;;;;21.10;24.40;;;;;;466582;254;1047;-75
2022/03/23 05:37:05;;;;;;;;;;;20.90;24.50;;;;;;466592;254;1094;-75
2022/03/23 05:39:06;;;;;;;;;;;21.20;24.40;;;;;;466583;254;2153;-75
2022/03/23 05:41:08;;;;;;;;;;;20.90;24.50;;;;;;466551;254;1295;-75
2022/03/23 05:43:09;;;;;;;;;;;21.00;24.50;;;;;;466588;254;1060;-75
2022/03/23 05:45:10;;;;;;;;;;;20.90;24.60;;;;;;466612;254;1024;-75
2022/03/23 05:47:12;;;;;;;;;;;20.80;24.50;;;;;;466547;254;1002;-75
2022/03/23 05:49:14;;;;;;;;;;;20.90;24.70;;;;;;466580;254;1035;-75
2022/03/23 05:51:15;;;;;;;;;;;20.80;24.50;;;;;;466534;254;1049;-75
2022/03/23 05:53:16;;;;;;;;;;;20.90;24.60;;;;;;466434;254;1032;-75
2022/03/23 05:55:17;;;;;;;;;;;20.80;24.60;;;;;;466446;254;1175;-75
2022/03/23 05:57:18;;;;;;;;;;;20.70;24.70;;;;;;466434;254;956;-75
2022/03/23 05:59:20;;;;;;;;;;;20.80;24.70;;;;;;466481;254;2197;-75
2022/03/23 06:01:21;;;;;;;;;;;20.80;24.70;;;;;;466446;254;1078;-75
2022/03/23 06:03:22;;;;;;;;;;;20.80;24.70;;;;;;466494;254;1050;-75
2022/03/23 06:05:24;;;;;;;;;;;21.10;24.60;;;;;;466541;254;1043;-75
2022/03/23 06:07:25;;;;;;;;;;;21.10;24.50;;;;;;466466;254;985;-75
2022/03/23 06:09:27;;;;;;;;;;;21.10;24.50;;;;;;466457;254;1021;-75
2022/03/23 06:11:28;;;;;;;;;;;21.10;24.50;;;;;;466440;254;1212;-75
2022/03/23 06:13:29;;;;;;;;;;;21.10;24.60;;;;;;466510;254;1111;-75
2022/03/23 06:15:30;;;;;;;;;;;21.10;24.50;;;;;;466451;254;979;-75
2022/03/23 06:17:32;;;;;;;;;;;21.10;24.50;;;;;;466445;254;973;-75
2022/03/23 06:19:33;;;;;;;;;;;21.20;24.50;;;;;;466405;254;2197;-75
2022/03/23 06:21:34;;;;;;;;;;;21.30;24.50;;;;;;466368;254;1063;-75
2022/03/23 06:23:36;;;;;;;;;;;21.20;24.50;;;;;;466318;254;1042;-75
2022/03/23 06:25:37;;;;;;;;;;;21.20;24.50;;;;;;466289;254;1159;-75
2022/03/23 06:27:38;;;;;;;;;;;21.20;24.60;;;;;;466322;254;1036;-75
2022/03/23 06:29:40;;;;;;;;;;;21.30;24.50;;;;;;466358;254;1059;-74
2022/03/23 06:31:41;;;;;;;;;;;21.20;24.50;;;;;;466279;254;1151;-74
2022/03/23 06:33:42;;;;;;;;;;;21.20;24.60;;;;;;466427;254;1063;-75
2022/03/23 06:35:44;;;;;;;;;;;21.10;24.70;;;;;;466418;254;1031;-76
2022/03/23 06:37:45;;;;;;;;;;;21.00;24.80;;;;;;466356;254;1033;-75
2022/03/23 06:39:46;;;;;;;;;;;20.90;24.90;;;;;;466191;251;2192;-75
2022/03/23 06:41:48;;;;;;;;;;;21.10;24.90;;;;;;466318;254;1462;-75
2022/03/23 06:43:49;;;;;;;;;;;21.10;24.90;;;;;;466305;254;1079;-75
2022/03/23 06:45:50;;;;;;;;;;;21.10;24.80;;;;;;466333;254;978;-75
2022/03/23 06:47:52;;;;;;;;;;;21.20;24.80;;;;;;466374;254;1034;-75
2022/03/23 06:49:53;;;;;;;;;;;21.40;24.70;;;;;;466368;254;1038;-75
2022/03/23 06:51:54;;;;;;;;;;;21.20;24.80;;;;;;466328;254;970;-75
2022/03/23 06:53:56;;;;;;;;;;;21.10;24.90;;;;;;466288;254;982;-75
2022/03/23 06:55:57;;;;;;;;;;;21.10;24.90;;;;;;466148;254;1321;-75
2022/03/23 06:57:58;;;;;;;;;;;21.10;25.00;;;;;;466391;254;1101;-75
2022/03/23 07:00:00;;;;;;;;;;;21.10;25.10;;;;;;466340;254;2196;-75
2022/03/23 07:02:01;;;;;;;;;;;21.10;25.00;;;;;;466299;254;980;-75
2022/03/23 07:04:02;;;;;;;;;;;21.00;25.20;;;;;;466240;254;1141;-75
2022/03/23 07:06:03;;;;;;;;;;;21.10;25.10;;;;;;466172;254;1069;-75
2022/03/23 07:10:25;;;;;;;;;;;21.20;25.10;;;;;;466195;256;1042;-74
2022/03/23 07:12:27;;;;;;;;;;;21.30;25.20;;;;;;466164;254;1203;-75
2022/03/23 07:14:28;;;;;;;;;;;21.30;25.20;;;;;;466171;254;1013;-75
2022/03/23 07:16:29;;;;;;;;;;;21.30;25.20;;;;;;466090;254;1088;-75
2022/03/23 07:18:31;;;;;;;;;;;21.40;25.20;;;;;;466156;254;2193;-75
2022/03/23 07:20:32;;;;;;;;;;;21.30;25.40;;;;;;466044;254;1021;-75
2022/03/23 07:22:33;;;;;;;;;;;21.30;25.40;;;;;;466030;254;1127;-75
2022/03/23 07:24:35;;;;;;;;;;;21.40;25.50;;;;;;466147;255;1134;-62
2022/03/23 07:26:36;;;;;;;;;;;21.40;25.60;;;;;;466128;254;1129;-57
2022/03/23 07:28:38;;;;;;;;;;;21.50;25.50;;;;;;466225;254;1042;-57
2022/03/23 07:30:40;;;;;;;;;;;21.60;25.40;;;;;;466140;253;2220;-57
2022/03/23 07:32:41;;;;;;;;;;;21.60;25.40;;;;;;466137;254;1126;-57
2022/03/23 07:34:43;;;;;;;;;;;21.70;25.40;;;;;;466132;254;1081;-57
2022/03/23 07:36:44;;;;;;;;;;;21.60;25.50;;;;;;466075;254;1130;-57
2022/03/23 07:38:45;;;;;;;;;;;21.70;25.30;;;;;;466036;254;2184;-57
2022/03/23 07:40:47;;;;;;;;;;;21.60;25.40;;;;;;465918;254;1232;-57
2022/03/23 07:42:48;;;;;;;;;;;21.90;25.20;;;;;;465959;251;1186;-58
2022/03/23 07:44:49;;;;;;;;;;;21.80;25.40;;;;;;465959;254;1142;-57
2022/03/23 07:46:52;;;;;;;;;;;21.90;25.30;;;;;;465969;254;1061;-57
2022/03/23 07:48:52;;;;;;;;;;;21.90;25.30;;;;;;466036;254;2273;-57
2022/03/23 07:50:53;;;;;;;;;;;21.90;25.30;;;;;;466101;254;1296;-57
2022/03/23 07:52:54;;;;;;;;;;;21.90;25.50;;;;;;466019;254;1081;-58
2022/03/23 07:54:56;;;;;;;;;;;21.90;25.40;;;;;;465947;254;1157;-57
2022/03/23 07:56:57;;;;;;;;;;;21.90;25.50;;;;;;465901;254;1272;-57
2022/03/23 07:58:59;;;;;;;;;;;21.90;25.40;;;;;;465475;254;2213;-57
2022/03/23 08:01:00;;;;;;;;;;;21.80;25.60;;;;;;465432;254;1107;-57
2022/03/23 08:03:01;;;;;;;;;;;21.80;25.60;;;;;;465568;254;1127;-57
2022/03/23 08:05:03;;;;;;;;;;;21.70;25.70;;;;;;465798;254;1146;-57
2022/03/23 08:07:04;;;;;;;;;;;21.70;25.60;;;;;;465870;254;1087;-57
2022/03/23 08:09:06;;;;;;;;;;;21.60;25.90;;;;;;465746;254;1253;-58
2022/03/23 08:11:07;;;;;;;;;;;21.40;26.00;;;;;;465937;254;1625;-57
2022/03/23 08:13:09;;;;;;;;;;;21.30;26.00;;;;;;465936;254;1193;-57
2022/03/23 08:15:10;;;;;;;;;;;21.30;26.10;;;;;;465939;254;1065;-57
2022/03/23 08:17:11;;;;;;;;;;;21.20;26.10;;;;;;465896;254;1168;-57
2022/03/23 08:19:13;;;;;;;;;;;21.40;26.10;;;;;;465748;254;2193;-57
2022/03/23 08:21:16;;;;;;;;;;;21.30;26.10;;;;;;465744;254;1187;-57
2022/03/23 08:23:15;;;;;;;;;;;21.30;26.10;;;;;;465888;254;1957;-57
2022/03/23 08:25:17;;;;;;;;;;;21.50;26.10;;;;;;465644;254;1160;-57
2022/03/23 08:27:18;;;;;;;;;;;21.40;26.10;;;;;;465742;254;1192;-58
2022/03/23 08:29:19;;;;;;;;;;;21.40;26.20;;;;;;465828;254;1111;-57
2022/03/23 08:31:21;;;;;;;;;;;21.20;26.30;;;;;;465790;254;1179;-57
2022/03/23 08:33:25;;;;;;;;;;;21.10;26.40;;;;;;465786;254;1130;-57
2022/03/23 08:35:24;;;;;;;;;;;21.30;26.20;;;;;;465735;254;2205;-57
2022/03/23 08:37:26;;;;;;;;;;;21.30;26.30;;;;;;465768;254;1233;-57
2022/03/23 08:39:27;;;;;;;;;;;21.40;26.10;;;;;;465844;254;2295;-57
2022/03/23 08:41:28;;;;;;;;;;;21.50;26.00;;;;;;465863;254;1113;-57
2022/03/23 08:43:29;;;;;;;;;;;21.80;25.80;;;;;;465928;254;1219;-57
2022/03/23 08:45:31;;;;;;;;;;;22.00;25.60;;;;;;465790;254;1075;-57
2022/03/23 08:47:32;;;;;;;;;;;22.30;25.30;;;;;;465891;254;1098;-57
2022/03/23 08:49:33;;;;;;;;;;;22.60;25.10;;;;;;465915;254;1109;-57
2022/03/23 08:51:35;;;;;;;;;;;22.90;24.70;;;;;;465826;254;1149;-57
2022/03/23 08:53:38;;;;;;;;;;;23.00;24.60;;;;;;466023;254;1431;-57
2022/03/23 08:55:38;;;;;;;;;;;23.10;24.60;;;;;;466123;254;2144;-57
2022/03/23 08:57:40;;;;;;;;;;;23.10;24.60;;;;;;465878;254;1179;-57
2022/03/23 08:59:41;;;;;;;;;;;23.30;24.40;;;;;;465854;254;2146;-57
2022/03/23 09:01:42;;;;;;;;;;;23.40;24.20;;;;;;465777;254;1261;-58
2022/03/23 09:03:43;;;;;;;;;;;23.20;24.30;;;;;;465821;254;1072;-58
2022/03/23 09:05:45;;;;;;;;;;;23.00;24.50;;;;;;465816;254;1078;-57
2022/03/23 09:07:46;;;;;;;;;;;23.00;24.50;;;;;;465842;254;1132;-57
2022/03/23 09:09:47;;;;;;;;;;;22.80;24.70;;;;;;465827;254;1064;-57
2022/03/23 09:11:49;;;;;;;;;;;22.50;25.00;;;;;;465815;254;1129;-57
2022/03/23 09:13:50;;;;;;;;;;;22.50;25.00;;;;;;465673;254;1216;-57
2022/03/23 09:15:51;;;;;;;;;;;22.20;25.20;;;;;;465597;254;1130;-57
2022/03/23 09:17:53;;;;;;;;;;;22.00;25.40;;;;;;465782;254;1077;-57
2022/03/23 09:19:55;;;;;;;;;;;22.10;25.30;;;;;;465921;254;2131;-57
2022/03/23 09:21:56;;;;;;;;;;;22.10;25.20;;;;;;466038;254;2273;-57
2022/03/23 09:23:57;;;;;;;;;;;21.90;25.40;;;;;;465636;254;1092;-57
2022/03/23 09:26:00;;;;;;;;;;;21.80;25.40;;;;;;465516;254;1163;-57
2022/03/23 09:27:59;;;;;;;;;;;21.70;25.50;;;;;;465624;254;1455;-57
2022/03/23 09:30:01;;;;;;;;;;;21.80;25.50;;;;;;465703;254;1035;-57
2022/03/23 09:32:09;;;;;;;;;;;21.60;25.50;;;;;;465750;254;1081;-57
2022/03/23 09:34:03;;;;;;;;;;;21.70;25.60;;;;;;465905;254;2371;-58
2022/03/23 09:36:05;;;;;;;;;;;21.70;25.40;;;;;;465880;254;1246;-57
2022/03/23 09:38:06;;;;;;;;;;;21.60;25.60;;;;;;465896;254;1191;-57
2022/03/23 09:40:08;;;;;;;;;;;21.70;25.50;;;;;;465917;254;2202;-57
2022/03/23 09:42:09;;;;;;;;;;;21.60;25.60;;;;;;465856;254;1110;-57
2022/03/23 09:44:10;;;;;;;;;;;21.60;25.50;;;;;;465689;254;1688;-58
2022/03/23 09:46:11;;;;;;;;;;;21.60;25.60;;;;;;465653;254;1186;-57
2022/03/23 09:48:13;;;;;;;;;;;21.60;25.50;;;;;;465837;254;1160;-57
2022/03/23 09:50:14;;;;;;;;;;;21.60;25.50;;;;;;465850;254;1108;-57
2022/03/23 09:52:15;;;;;;;;;;;21.60;25.40;;;;;;465877;254;1418;-59
2022/03/23 09:54:17;;;;;;;;;;;21.80;25.40;;;;;;465920;254;1099;-57
2022/03/23 09:56:18;;;;;;;;;;;21.60;25.50;;;;;;465770;254;1333;-58
2022/03/23 09:58:19;;;;;;;;;;;21.70;25.50;;;;;;465823;254;1414;-57
2022/03/23 10:00:21;;;;;;;;;;;21.60;25.60;;;;;;465600;254;2154;-58
2022/03/23 10:02:22;;;;;;;;;;;21.40;25.60;;;;;;465685;254;1155;-57
2022/03/23 10:04:23;;;;;;;;;;;21.60;25.40;;;;;;465847;254;1083;-57
2022/03/23 10:06:25;;;;;;;;;;;21.50;25.60;;;;;;465902;254;1087;-57
2022/03/23 10:08:26;;;;;;;;;;;21.50;25.60;;;;;;465977;254;1135;-57
2022/03/23 10:10:28;;;;;;;;;;;21.70;25.40;;;;;;465914;254;1100;-58
2022/03/23 10:12:29;;;;;;;;;;;21.90;25.20;;;;;;465923;254;1221;-57
2022/03/23 10:14:30;;;;;;;;;;;21.90;25.20;;;;;;465892;254;1195;-57
2022/03/23 10:16:32;;;;;;;;;;;22.00;25.20;;;;;;465754;254;1129;-57
2022/03/23 10:18:33;;;;;;;;;;;22.00;25.10;;;;;;465859;254;1144;-57
2022/03/23 10:20:34;;;;;;;;;;;22.10;25.20;;;;;;465880;254;2137;-57
2022/03/23 10:22:36;;;;;;;;;;;22.10;25.20;;;;;;465788;254;1063;-57
2022/03/23 10:24:37;;;;;;;;;;;22.00;25.20;;;;;;465999;254;1197;-57
2022/03/23 10:26:40;;;;;;;;;;;22.00;25.20;;;;;;465769;254;1159;-57
2022/03/23 10:28:39;;;;;;;;;;;21.90;25.30;;;;;;465754;254;1601;-57
2022/03/23 10:30:41;;;;;;;;;;;21.90;25.20;;;;;;465812;254;1282;-57
2022/03/23 10:32:42;;;;;;;;;;;22.00;25.20;;;;;;465665;254;1081;-57
2022/03/23 10:34:43;;;;;;;;;;;21.70;25.40;;;;;;465659;254;1055;-57
2022/03/23 10:36:45;;;;;;;;;;;22.00;25.30;;;;;;465487;254;1138;-57
2022/03/23 10:38:46;;;;;;;;;;;21.90;25.30;;;;;;465754;254;1100;-58
2022/03/23 10:40:47;;;;;;;;;;;22.10;25.20;;;;;;465722;254;2131;-57
2022/03/23 10:42:49;;;;;;;;;;;21.80;25.30;;;;;;465857;254;1116;-57
2022/03/23 10:44:50;;;;;;;;;;;22.00;25.30;;;;;;465873;254;1227;-57
2022/03/23 10:46:51;;;;;;;;;;;22.00;25.30;;;;;;465824;254;1071;-58
2022/03/23 10:48:58;;;;;;;;;;;21.90;25.50;;;;;;465698;254;1059;-57
2022/03/23 10:50:54;;;;;;;;;;;21.70;25.60;;;;;;465633;254;2344;-57
2022/03/23 10:52:55;;;;;;;;;;;21.90;25.40;;;;;;465776;254;1086;-58
2022/03/23 10:54:57;;;;;;;;;;;21.90;25.40;;;;;;465889;254;1084;-57
2022/03/23 10:56:58;;;;;;;;;;;22.00;25.30;;;;;;465810;254;1131;-57
2022/03/23 10:58:59;;;;;;;;;;;22.00;25.20;;;;;;465846;254;1291;-58
2022/03/23 11:01:01;;;;;;;;;;;22.10;25.20;;;;;;465805;254;2192;-57
2022/03/23 11:03:02;;;;;;;;;;;22.00;25.20;;;;;;465867;254;1048;-58
2022/03/23 11:05:03;;;;;;;;;;;21.90;25.30;;;;;;465895;254;1106;-58
2022/03/23 11:07:05;;;;;;;;;;;22.00;25.10;;;;;;465890;254;1068;-58
2022/03/23 11:15:46;;;;;;;;;;;22.10;25.10;;;;;;465816;254;1207;-57
2022/03/23 11:15:51;;;;;;;;;;;22.00;25.20;;;;;;465654;255;1074;-57
2022/03/23 11:17:50;;;;;;;;;;;22.00;25.20;;;;;;465867;254;2372;-58
2022/03/23 11:19:52;;;;;;;;;;;22.10;25.00;;;;;;465789;254;2209;-58
2022/03/23 11:21:53;;;;;;;;;;;22.00;25.10;;;;;;465724;254;1260;-58
2022/03/23 11:23:54;;;;;;;;;;;22.00;25.20;;;;;;465794;254;1337;-58
2022/03/23 11:25:56;;;;;;;;;;;22.10;25.20;;;;;;465861;254;1058;-57
2022/03/23 11:27:57;;;;;;;;;;;22.10;25.20;;;;;;465816;254;1094;-58
2022/03/23 11:29:58;;;;;;;;;;;22.00;25.20;;;;;;465778;254;1194;-57
2022/03/23 11:32:00;;;;;;;;;;;22.10;25.10;;;;;;465653;254;1098;-57
2022/03/23 11:34:02;;;;;;;;;;;21.90;25.20;;;;;;465983;254;1083;-57
2022/03/23 11:36:02;;;;;;;;;;;22.00;25.10;;;;;;465860;254;2309;-58
2022/03/23 11:38:04;;;;;;;;;;;22.10;25.10;;;;;;465871;254;1106;-57
2022/03/23 11:40:05;;;;;;;;;;;22.00;25.10;;;;;;465984;254;2197;-57
2022/03/23 11:42:06;;;;;;;;;;;21.90;25.20;;;;;;465980;254;1065;-58
2022/03/23 11:44:10;;;;;;;;;;;22.00;25.10;;;;;;465809;254;1253;-57
2022/03/23 11:46:10;;;;;;;;;;;22.00;25.10;;;;;;465668;254;1908;-58
2022/03/23 11:48:10;;;;;;;;;;;21.90;25.20;;;;;;465896;254;2312;-58
2022/03/23 11:50:12;;;;;;;;;;;21.80;25.30;;;;;;465951;254;1140;-58
2022/03/23 11:52:13;;;;;;;;;;;21.80;25.30;;;;;;465854;254;1265;-57
2022/03/23 11:54:14;;;;;;;;;;;21.80;25.20;;;;;;465792;254;1050;-58
2022/03/23 11:56:16;;;;;;;;;;;21.80;25.20;;;;;;465800;254;1159;-57
2022/03/23 11:58:18;;;;;;;;;;;21.80;25.30;;;;;;465840;254;1131;-57
2022/03/23 12:00:18;;;;;;;;;;;21.80;25.30;;;;;;465833;254;2200;-57
2022/03/23 12:02:20;;;;;;;;;;;21.80;25.40;;;;;;465719;254;1177;-58
2022/03/23 12:04:21;;;;;;;;;;;21.80;25.30;;;;;;465783;254;1116;-57
2022/03/23 12:06:23;;;;;;;;;;;21.80;25.20;;;;;;465758;254;1204;-57
2022/03/23 12:08:25;;;;;;;;;;;21.90;25.10;;;;;;465789;254;1095;-57
2022/03/23 12:10:26;;;;;;;;;;;21.90;25.00;;;;;;465645;254;1391;-57
2022/03/23 12:12:27;;;;;;;;;;;21.90;25.10;;;;;;465801;254;1262;-57